createdAt,value
2022-10-14T00:01:25.079Z,45.98
2022-10-14T00:03:53.207Z,46.07
2022-10-14T00:06:23.558Z,45.91
2022-10-14T00:08:51.934Z,46.23
2022-10-14T00:11:21.356Z,46.08
2022-10-14T00:13:49.363Z,46.01
2022-10-14T00:16:18.277Z,46.21
2022-10-14T00:18:46.259Z,46.23
2022-10-14T00:21:14.274Z,45.80
2022-10-14T00:23:43.790Z,46.21
2022-10-14T00:26:16.684Z,45.74
2022-10-14T00:28:44.693Z,45.83
2022-10-14T00:31:12.760Z,45.71
2022-10-14T00:33:40.732Z,45.77
2022-10-14T00:36:09.561Z,45.70
2022-10-14T00:38:37.554Z,45.72
2022-10-14T00:41:07.164Z,46.07
2022-10-14T00:43:53.797Z,45.96
2022-10-14T00:46:22.003Z,45.82
2022-10-14T00:48:49.974Z,45.75
2022-10-14T00:51:17.899Z,45.69
2022-10-14T00:53:45.816Z,45.73
2022-10-14T00:56:15.967Z,46.06
2022-10-14T00:58:43.989Z,45.76
2022-10-14T01:01:11.978Z,45.92
2022-10-14T01:03:41.187Z,45.66
2022-10-14T01:06:14.810Z,45.71
2022-10-14T01:08:46.732Z,45.97
2022-10-14T01:11:18.208Z,45.89
2022-10-14T01:13:49.113Z,45.83
2022-10-14T01:16:19.798Z,45.71
2022-10-14T01:19:01.902Z,45.82
2022-10-14T01:21:30.713Z,45.79
2022-10-14T01:24:34.065Z,45.54
2022-10-14T01:27:37.596Z,45.73
2022-10-14T01:30:18.459Z,45.75
2022-10-14T01:32:56.622Z,45.82
2022-10-14T01:35:28.002Z,45.58
2022-10-14T01:37:57.813Z,45.70
2022-10-14T01:40:31.570Z,45.54
2022-10-14T01:43:00.147Z,45.55
2022-10-14T01:45:29.466Z,45.36
2022-10-14T01:47:57.412Z,45.39
2022-10-14T01:50:25.736Z,45.62
2022-10-14T01:52:56.027Z,45.63
2022-10-14T01:55:26.367Z,45.28
2022-10-14T01:57:55.160Z,45.46
2022-10-14T02:00:23.076Z,45.32
2022-10-14T02:02:52.511Z,45.56
2022-10-14T02:05:23.527Z,45.28
2022-10-14T02:07:52.952Z,45.63
2022-10-14T02:10:27.553Z,45.34
2022-10-14T02:12:57.980Z,45.46
2022-10-14T02:15:30.192Z,45.63
2022-10-14T02:18:04.585Z,45.53
2022-10-14T02:20:33.796Z,45.27
2022-10-14T02:23:03.268Z,45.43
2022-10-14T02:25:32.782Z,45.59
2022-10-14T02:28:00.759Z,45.28
2022-10-14T02:30:28.966Z,45.46
2022-10-14T02:32:57.243Z,45.30
2022-10-14T02:35:26.591Z,45.56
2022-10-14T02:37:54.522Z,45.34
2022-10-14T02:40:28.268Z,45.07
2022-10-14T02:42:56.207Z,45.33
2022-10-14T02:45:26.033Z,44.95
2022-10-14T02:47:53.999Z,45.10
2022-10-14T02:50:22.046Z,44.97
2022-10-14T02:52:51.457Z,45.13
2022-10-14T02:55:19.446Z,45.22
2022-10-14T02:57:47.375Z,45.03
2022-10-14T03:00:16.121Z,45.03
2022-10-14T03:02:44.086Z,45.31
2022-10-14T03:05:12.144Z,45.02
2022-10-14T03:07:40.076Z,45.07
2022-10-14T03:10:10.162Z,45.48
2022-10-14T03:12:38.056Z,45.36
2022-10-14T03:15:07.263Z,45.33
2022-10-14T03:17:35.212Z,45.01
2022-10-14T03:20:03.335Z,45.19
2022-10-14T03:22:31.229Z,45.42
2022-10-14T03:24:59.097Z,45.10
2022-10-14T03:27:28.578Z,45.06
2022-10-14T03:29:56.486Z,45.41
2022-10-14T03:32:24.776Z,45.37
2022-10-14T03:34:52.794Z,44.98
2022-10-14T03:37:20.745Z,44.97
2022-10-14T03:39:48.697Z,45.13
2022-10-14T03:42:16.601Z,45.29
2022-10-14T03:44:46.465Z,45.30
2022-10-14T03:47:14.433Z,45.01
2022-10-14T03:49:42.345Z,44.90
2022-10-14T03:52:10.319Z,45.23
2022-10-14T03:54:38.513Z,44.91
2022-10-14T03:57:06.433Z,45.18
2022-10-14T03:59:34.399Z,44.86
2022-10-14T04:02:03.759Z,45.17
2022-10-14T04:04:31.758Z,45.26
2022-10-14T04:06:59.827Z,45.16
2022-10-14T04:09:29.262Z,44.96
2022-10-14T04:11:58.171Z,45.16
2022-10-14T04:14:26.590Z,45.30
2022-10-14T04:16:54.496Z,45.07
2022-10-14T04:19:23.976Z,45.08
2022-10-14T04:21:51.981Z,44.87
2022-10-14T04:24:19.942Z,44.86
2022-10-14T04:26:47.851Z,45.16
2022-10-14T04:29:15.850Z,45.15
2022-10-14T04:31:44.067Z,45.26
2022-10-14T04:34:12.639Z,44.91
2022-10-14T04:36:42.034Z,45.31
2022-10-14T04:39:10.991Z,44.92
2022-10-14T04:41:39.008Z,45.29
2022-10-14T04:44:07.200Z,45.08
2022-10-14T04:46:35.228Z,45.02
2022-10-14T04:49:03.141Z,44.71
2022-10-14T04:51:31.156Z,44.80
2022-10-14T04:54:00.563Z,45.14
2022-10-14T04:56:28.809Z,45.08
2022-10-14T04:58:56.708Z,44.85
2022-10-14T05:01:24.704Z,44.76
2022-10-14T05:03:52.650Z,44.67
2022-10-14T05:06:20.619Z,44.66
2022-10-14T05:08:48.536Z,45.05
2022-10-14T05:11:17.935Z,44.90
2022-10-14T05:13:45.808Z,44.61
2022-10-14T05:16:14.005Z,45.01
2022-10-14T05:18:41.916Z,44.98
2022-10-14T05:21:09.896Z,44.72
2022-10-14T05:23:38.005Z,44.79
2022-10-14T05:26:06.275Z,44.72
2022-10-14T05:28:35.675Z,45.01
2022-10-14T05:31:03.681Z,44.67
2022-10-14T05:33:32.165Z,44.46
2022-10-14T05:36:00.198Z,44.52
2022-10-14T05:38:28.270Z,44.78
2022-10-14T05:40:56.400Z,44.62
2022-10-14T05:43:30.923Z,44.87
2022-10-14T05:46:01.620Z,44.82
2022-10-14T05:48:29.649Z,44.52
2022-10-14T05:51:01.467Z,44.54
2022-10-14T05:53:29.531Z,44.53
2022-10-14T05:56:02.887Z,44.39
2022-10-14T05:58:30.796Z,44.66
2022-10-14T06:01:02.223Z,44.49
2022-10-14T06:03:30.490Z,44.59
2022-10-14T06:05:58.949Z,44.26
2022-10-14T06:08:27.298Z,44.66
2022-10-14T06:10:55.435Z,44.07
2022-10-14T06:13:23.548Z,44.61
2022-10-14T06:15:51.460Z,44.59
2022-10-14T06:18:20.747Z,44.67
2022-10-14T06:20:53.167Z,44.16
2022-10-14T06:23:21.834Z,44.24
2022-10-14T06:25:49.764Z,44.21
2022-10-14T06:28:17.781Z,44.10
2022-10-14T06:30:50.808Z,43.99
2022-10-14T06:33:20.171Z,44.21
2022-10-14T06:35:48.151Z,44.15
2022-10-14T06:38:16.183Z,44.43
2022-10-14T06:40:44.392Z,44.08
2022-10-14T06:43:12.376Z,44.18
2022-10-14T06:45:58.298Z,44.15
2022-10-14T06:48:27.630Z,44.37
2022-10-14T06:50:55.622Z,44.35
2022-10-14T06:53:23.621Z,44.42
2022-10-14T06:55:51.519Z,44.16
2022-10-14T06:58:19.499Z,43.87
2022-10-14T07:00:48.380Z,44.01
2022-10-14T07:03:16.476Z,44.24
2022-10-14T07:05:45.765Z,43.98
2022-10-14T07:08:15.519Z,44.10
2022-10-14T07:10:43.901Z,44.06
2022-10-14T07:13:11.839Z,44.02
2022-10-14T07:15:40.016Z,44.11
2022-10-14T07:18:08.227Z,44.11
2022-10-14T07:20:36.118Z,43.94
2022-10-14T07:23:05.533Z,43.99
2022-10-14T07:25:34.003Z,43.51
2022-10-14T07:28:01.959Z,43.64
2022-10-14T07:30:29.958Z,43.99
2022-10-14T07:32:57.872Z,43.94
2022-10-14T07:35:26.976Z,43.78
2022-10-14T07:37:55.083Z,43.86
2022-10-14T07:40:24.434Z,43.64
2022-10-14T07:42:52.479Z,44.58
2022-10-14T07:45:21.331Z,45.12
2022-10-14T07:47:50.101Z,44.66
2022-10-14T07:50:18.100Z,45.11
2022-10-14T07:52:46.047Z,45.18
2022-10-14T07:55:13.997Z,44.70
2022-10-14T07:57:43.927Z,44.50
2022-10-14T08:00:12.463Z,44.50
2022-10-14T08:02:40.450Z,44.01
2022-10-14T08:05:26.082Z,44.27
2022-10-14T08:07:56.527Z,44.52
2022-10-14T08:10:24.438Z,44.36
2022-10-14T08:12:53.900Z,44.41
2022-10-14T08:15:21.838Z,44.42
2022-10-14T08:17:49.783Z,44.72
2022-10-14T08:20:17.775Z,44.39
2022-10-14T08:22:45.723Z,44.45
2022-10-14T08:25:13.654Z,44.44
2022-10-14T08:27:41.550Z,44.88
2022-10-14T08:30:12.157Z,44.69
2022-10-14T08:32:40.161Z,44.69
2022-10-14T08:35:09.549Z,44.78
2022-10-14T08:37:37.820Z,44.77
2022-10-14T08:40:06.669Z,44.59
2022-10-14T08:42:41.292Z,44.57
2022-10-14T08:45:11.525Z,44.49
2022-10-14T08:47:41.425Z,44.75
2022-10-14T08:50:18.532Z,44.50
2022-10-14T08:52:49.473Z,45.08
2022-10-14T08:55:23.620Z,44.84
2022-10-14T08:57:53.261Z,44.98
2022-10-14T09:00:22.782Z,44.74
2022-10-14T09:02:51.958Z,44.60
2022-10-14T09:05:22.170Z,44.45
2022-10-14T09:10:27.282Z,44.30
2022-10-14T09:12:55.345Z,44.65
2022-10-14T09:15:27.955Z,44.61
2022-10-14T09:18:06.130Z,44.50
2022-10-14T09:20:34.124Z,44.50
2022-10-14T09:23:10.736Z,44.17
2022-10-14T09:25:38.684Z,44.43
2022-10-14T09:28:07.036Z,44.25
2022-10-14T09:30:37.780Z,44.29
2022-10-14T09:33:05.808Z,44.25
2022-10-14T09:35:35.803Z,44.01
2022-10-14T09:38:03.846Z,43.83
2022-10-14T09:40:33.587Z,43.77
2022-10-14T09:43:04.237Z,43.89
2022-10-14T09:45:37.153Z,43.88
2022-10-14T09:48:08.116Z,43.92
2022-10-14T09:50:37.411Z,44.16
2022-10-14T09:53:10.741Z,43.95
2022-10-14T09:55:39.741Z,43.68
2022-10-14T09:58:09.551Z,43.77
2022-10-14T10:00:38.769Z,43.85
2022-10-14T10:03:11.502Z,43.56
2022-10-14T10:05:41.608Z,43.54
2022-10-14T10:08:17.180Z,43.44
2022-10-14T10:11:03.622Z,43.61
2022-10-14T10:13:45.008Z,45.76
2022-10-14T10:16:21.977Z,44.71
2022-10-14T10:18:52.240Z,45.82
2022-10-14T10:21:21.260Z,46.04
2022-10-14T10:23:53.963Z,46.07
2022-10-14T10:26:26.670Z,46.12
2022-10-14T10:28:57.502Z,45.92
2022-10-14T10:31:58.334Z,46.75
2022-10-14T10:34:59.792Z,47.29
2022-10-14T10:37:30.053Z,46.48
2022-10-14T10:40:22.521Z,46.97
2022-10-14T10:42:56.731Z,46.80
2022-10-14T10:45:35.561Z,47.03
2022-10-14T10:48:08.176Z,47.48
2022-10-14T10:50:42.024Z,48.55
2022-10-14T10:53:23.412Z,46.99
2022-10-14T10:55:56.665Z,48.61
2022-10-14T10:58:35.463Z,48.74
2022-10-14T11:01:07.410Z,48.55
2022-10-14T11:03:43.891Z,48.19
2022-10-14T11:06:12.444Z,48.88
2022-10-14T11:09:05.692Z,48.85
2022-10-14T11:11:52.710Z,47.80
2022-10-14T11:14:48.784Z,48.48
2022-10-14T11:17:21.627Z,49.06
2022-10-14T11:19:53.269Z,50.58
2022-10-14T11:22:29.897Z,50.36
2022-10-14T11:25:03.889Z,51.14
2022-10-14T11:27:34.965Z,50.64
2022-10-14T11:30:18.870Z,50.36
2022-10-14T11:33:00.562Z,50.37
2022-10-14T11:38:31.360Z,50.23
2022-10-14T11:41:02.945Z,50.12
2022-10-14T11:43:34.506Z,50.44
2022-10-14T11:46:02.930Z,50.32
2022-10-14T11:48:34.950Z,50.26
2022-10-14T11:51:08.843Z,50.13
2022-10-14T11:53:48.618Z,49.84
2022-10-14T11:56:25.265Z,50.17
2022-10-14T11:58:53.291Z,50.12
2022-10-14T12:01:22.558Z,50.14
2022-10-14T12:03:54.715Z,49.75
2022-10-14T12:06:23.764Z,49.80
2022-10-14T12:09:01.426Z,50.06
2022-10-14T12:11:35.145Z,48.93
2022-10-14T12:14:07.276Z,49.10
2022-10-14T12:16:35.231Z,48.76
2022-10-14T12:19:03.168Z,48.83
2022-10-14T12:21:33.745Z,48.94
2022-10-14T12:24:04.440Z,48.99
2022-10-14T12:26:46.109Z,48.55
2022-10-14T12:29:14.503Z,48.54
2022-10-14T12:31:42.560Z,48.57
2022-10-14T12:34:18.871Z,48.52
2022-10-14T12:36:47.254Z,48.58
2022-10-14T12:39:34.452Z,48.47
2022-10-14T12:42:05.347Z,48.72
2022-10-14T12:44:42.355Z,48.78
2022-10-14T12:47:17.466Z,48.51
2022-10-14T12:49:48.174Z,48.41
2022-10-14T12:52:19.284Z,48.26
2022-10-14T12:54:48.167Z,47.98
2022-10-14T12:57:23.379Z,48.08
2022-10-14T12:59:51.651Z,47.99
2022-10-14T13:02:26.775Z,48.03
2022-10-14T13:04:55.575Z,48.02
2022-10-14T13:07:41.084Z,47.64
2022-10-14T13:10:48.747Z,47.70
2022-10-14T13:13:55.235Z,47.53
2022-10-14T13:17:06.008Z,47.54
2022-10-14T13:19:46.649Z,47.53
2022-10-14T13:22:37.162Z,47.25
2022-10-14T13:25:12.107Z,47.10
2022-10-14T13:27:44.688Z,47.22
2022-10-14T13:30:17.426Z,47.14
2022-10-14T13:32:46.731Z,47.25
2022-10-14T13:35:18.849Z,46.94
2022-10-14T13:37:47.460Z,46.81
2022-10-14T13:40:21.943Z,47.14
2022-10-14T13:42:53.182Z,47.19
2022-10-14T13:45:25.239Z,46.83
2022-10-14T13:47:53.724Z,46.79
2022-10-14T13:50:23.548Z,46.99
2022-10-14T13:52:55.421Z,46.72
2022-10-14T13:55:24.969Z,46.69
2022-10-14T13:58:13.015Z,46.66
2022-10-14T14:00:44.265Z,46.67
2022-10-14T14:03:18.008Z,46.57
2022-10-14T14:05:45.946Z,46.59
2022-10-14T14:11:22.054Z,46.89
2022-10-14T14:13:59.991Z,46.50
2022-10-14T14:16:33.026Z,46.70
2022-10-14T14:19:08.877Z,46.65
2022-10-14T14:21:38.078Z,46.33
2022-10-14T14:24:12.226Z,46.17
2022-10-14T14:26:40.815Z,46.35
2022-10-14T14:29:15.001Z,46.03
2022-10-14T14:34:32.830Z,45.92
2022-10-14T14:37:11.041Z,45.85
2022-10-14T14:39:57.157Z,45.66
2022-10-14T14:42:25.541Z,45.54
2022-10-14T14:44:53.707Z,45.65
2022-10-14T14:47:23.910Z,45.28
2022-10-14T14:50:06.180Z,45.13
2022-10-14T14:52:41.444Z,45.24
2022-10-14T14:55:37.764Z,44.90
2022-10-14T14:58:07.038Z,45.25
2022-10-14T15:00:35.050Z,45.20
2022-10-14T15:03:05.143Z,45.02
2022-10-14T15:05:33.058Z,45.15
2022-10-14T15:08:01.635Z,45.26
2022-10-14T15:10:31.557Z,45.47
2022-10-14T15:13:02.609Z,45.46
2022-10-14T15:15:32.354Z,45.37
2022-10-14T15:18:14.444Z,44.69
2022-10-14T15:20:43.084Z,45.19
2022-10-14T15:23:43.658Z,45.28
2022-10-14T15:26:23.141Z,45.21
2022-10-14T15:29:05.571Z,44.92
2022-10-14T15:31:33.561Z,45.00
2022-10-14T15:34:03.655Z,44.46
2022-10-14T15:36:32.397Z,45.01
2022-10-14T15:39:02.155Z,44.97
2022-10-14T15:41:30.177Z,44.49
2022-10-14T15:43:59.189Z,44.29
2022-10-14T15:46:44.300Z,44.73
2022-10-14T15:49:16.913Z,44.45
2022-10-14T15:51:44.909Z,44.60
2022-10-14T15:54:15.407Z,44.45
2022-10-14T15:56:43.399Z,44.13
2022-10-14T15:59:12.048Z,44.27
2022-10-14T16:01:41.318Z,44.22
2022-10-14T16:04:17.965Z,44.04
2022-10-14T16:06:45.948Z,44.09
2022-10-14T16:09:15.284Z,44.45
2022-10-14T16:11:43.275Z,44.47
2022-10-14T16:14:13.670Z,44.63
2022-10-14T16:16:43.354Z,44.82
2022-10-14T16:19:12.041Z,44.72
2022-10-14T16:21:41.462Z,44.61
2022-10-14T16:24:12.562Z,44.47
2022-10-14T16:26:42.225Z,44.44
2022-10-14T16:29:10.417Z,44.09
2022-10-14T16:31:39.219Z,43.98
2022-10-14T16:34:07.175Z,43.73
2022-10-14T16:36:35.772Z,44.05
2022-10-14T16:39:05.235Z,43.51
2022-10-14T16:41:33.909Z,43.71
2022-10-14T16:44:01.868Z,43.84
2022-10-14T16:46:44.515Z,43.43
2022-10-14T16:49:12.517Z,43.59
2022-10-14T16:51:41.534Z,43.60
2022-10-14T16:54:13.120Z,43.70
2022-10-14T16:56:58.818Z,43.84
2022-10-14T16:59:28.375Z,43.83
2022-10-14T17:01:57.129Z,43.28
2022-10-14T17:04:25.407Z,43.19
2022-10-14T17:06:54.137Z,43.63
2022-10-14T17:11:57.161Z,43.54
2022-10-14T17:14:25.147Z,43.33
2022-10-14T17:16:54.576Z,43.26
2022-10-14T17:19:23.968Z,43.48
2022-10-14T17:21:53.506Z,43.44
2022-10-14T17:24:22.149Z,43.35
2022-10-14T17:26:53.505Z,43.10
2022-10-14T17:29:21.832Z,43.16
2022-10-14T17:31:50.532Z,43.38
2022-10-14T17:34:18.476Z,43.47
2022-10-14T17:36:47.535Z,43.21
2022-10-14T17:39:22.887Z,43.41
2022-10-14T17:41:59.451Z,43.55
2022-10-14T17:44:28.756Z,43.47
2022-10-14T17:46:57.649Z,43.31
2022-10-14T17:49:25.640Z,43.57
2022-10-14T17:51:54.300Z,43.14
2022-10-14T17:54:23.079Z,43.48
2022-10-14T17:56:52.219Z,43.27
2022-10-14T17:59:21.612Z,43.54
2022-10-14T18:02:02.054Z,43.43
2022-10-14T18:04:30.869Z,43.21
2022-10-14T18:07:00.598Z,43.57
2022-10-14T18:09:28.623Z,43.11
2022-10-14T18:12:14.245Z,43.42
2022-10-14T18:14:43.684Z,43.46
2022-10-14T18:17:13.087Z,43.43
2022-10-14T18:19:41.935Z,43.31
2022-10-14T18:22:11.681Z,43.46
2022-10-14T18:24:39.681Z,43.54
2022-10-14T18:27:08.403Z,43.06
2022-10-14T18:29:36.319Z,43.22
2022-10-14T18:32:07.087Z,43.16
2022-10-14T18:34:35.016Z,43.53
2022-10-14T18:37:03.723Z,43.45
2022-10-14T18:39:31.730Z,43.10
2022-10-14T18:42:00.486Z,43.13
2022-10-14T18:44:28.396Z,43.37
2022-10-14T18:46:59.535Z,43.42
2022-10-14T18:49:29.015Z,43.26
2022-10-14T18:51:57.726Z,43.30
2022-10-14T18:54:26.418Z,43.17
2022-10-14T18:56:59.058Z,43.50
2022-10-14T18:59:27.243Z,43.21
2022-10-14T19:01:56.163Z,43.07
2022-10-14T19:04:26.843Z,43.15
2022-10-14T19:06:56.956Z,43.28
2022-10-14T19:09:29.577Z,43.35
2022-10-14T19:11:59.717Z,43.31
2022-10-14T19:14:28.761Z,43.14
2022-10-14T19:16:57.661Z,43.09
2022-10-14T19:19:28.628Z,43.21
2022-10-14T19:22:00.416Z,43.33
2022-10-14T19:24:28.632Z,43.07
2022-10-14T19:26:59.152Z,43.36
2022-10-14T19:29:27.105Z,43.41
2022-10-14T19:31:55.406Z,43.21
2022-10-14T19:34:27.105Z,43.29
2022-10-14T19:36:55.418Z,43.39
2022-10-14T19:39:25.641Z,43.25
2022-10-14T19:41:53.623Z,43.18
2022-10-14T19:44:23.680Z,43.18
2022-10-14T19:46:52.001Z,43.52
2022-10-14T19:49:22.099Z,43.47
2022-10-14T19:51:50.096Z,43.40
2022-10-14T19:54:19.652Z,43.08
2022-10-14T19:56:49.721Z,43.39
2022-10-14T19:59:18.366Z,43.16
2022-10-14T20:01:46.454Z,43.24
2022-10-14T20:04:15.131Z,43.10
2022-10-14T20:06:43.855Z,43.36
2022-10-14T20:09:12.784Z,42.99
2022-10-14T20:11:40.896Z,43.24
2022-10-14T20:14:11.648Z,43.20
2022-10-14T20:16:39.605Z,43.30
2022-10-14T20:19:08.351Z,43.18
2022-10-14T20:21:36.311Z,43.37
2022-10-14T20:24:05.121Z,43.33
2022-10-14T20:26:33.066Z,43.06
2022-10-14T20:29:01.829Z,43.22
2022-10-14T20:31:31.238Z,43.22
2022-10-14T20:33:59.918Z,43.40
2022-10-14T20:36:27.864Z,43.09
2022-10-14T20:38:56.562Z,43.02
2022-10-14T20:41:25.410Z,43.32
2022-10-14T20:43:54.529Z,43.23
2022-10-14T20:46:23.314Z,43.14
2022-10-14T20:48:56.821Z,43.19
2022-10-14T20:51:24.741Z,43.40
2022-10-14T20:54:01.898Z,43.22
2022-10-14T20:56:33.156Z,43.16
2022-10-14T20:59:02.949Z,43.26
2022-10-14T21:01:31.246Z,43.32
2022-10-14T21:04:02.664Z,43.36
2022-10-14T21:06:30.627Z,43.46
2022-10-14T21:08:59.711Z,43.43
2022-10-14T21:11:28.019Z,43.41
2022-10-14T21:13:58.023Z,43.09
2022-10-14T21:16:27.503Z,43.40
2022-10-14T21:18:58.036Z,43.40
2022-10-14T21:21:29.167Z,43.51
2022-10-14T21:23:57.966Z,43.07
2022-10-14T21:26:26.335Z,43.02
2022-10-14T21:28:54.993Z,43.57
2022-10-14T21:31:23.058Z,43.51
2022-10-14T21:33:59.869Z,43.21
2022-10-14T21:36:32.040Z,43.35
2022-10-14T21:39:01.991Z,43.21
2022-10-14T21:41:29.906Z,43.25
2022-10-14T21:43:59.282Z,43.45
2022-10-14T21:46:28.306Z,43.42
2022-10-14T21:48:57.027Z,43.14
2022-10-14T21:51:26.139Z,43.54
2022-10-14T21:53:55.986Z,43.09
2022-10-14T21:56:24.507Z,43.51
2022-10-14T21:58:52.533Z,43.59
2022-10-14T22:01:22.503Z,43.34
2022-10-14T22:03:53.939Z,43.27
2022-10-14T22:06:22.547Z,43.46
2022-10-14T22:08:51.739Z,43.39
2022-10-14T22:11:22.759Z,43.47
2022-10-14T22:13:50.831Z,43.61
2022-10-14T22:16:19.296Z,43.32
2022-10-14T22:18:47.778Z,43.33
2022-10-14T22:21:16.443Z,43.60
2022-10-14T22:23:44.575Z,43.33
2022-10-14T22:26:14.119Z,43.19
2022-10-14T22:28:43.605Z,43.21
2022-10-14T22:31:12.558Z,43.56
2022-10-14T22:33:41.023Z,43.54
2022-10-14T22:36:09.817Z,43.37
2022-10-14T22:38:37.825Z,43.65
2022-10-14T22:41:07.472Z,43.26
2022-10-14T22:43:36.966Z,43.53
2022-10-14T22:46:07.421Z,43.42
2022-10-14T22:48:35.594Z,43.37
2022-10-14T22:51:04.242Z,43.63
2022-10-14T22:53:32.241Z,43.33
2022-10-14T22:56:01.091Z,43.38
2022-10-14T22:58:29.077Z,43.55
2022-10-14T23:00:56.985Z,43.44
2022-10-14T23:03:27.283Z,43.46
2022-10-14T23:05:55.237Z,43.52
2022-10-14T23:08:23.139Z,43.52
2022-10-14T23:10:52.003Z,43.49
2022-10-14T23:13:19.900Z,43.51
2022-10-14T23:15:55.915Z,43.56
2022-10-14T23:18:24.007Z,43.61
2022-10-14T23:20:53.413Z,43.62
2022-10-14T23:23:21.413Z,43.45
2022-10-14T23:25:49.473Z,43.36
2022-10-14T23:28:17.499Z,43.30
2022-10-14T23:30:45.498Z,43.62
2022-10-14T23:33:13.422Z,43.61
2022-10-14T23:35:41.455Z,43.50
2022-10-14T23:38:12.493Z,43.29
2022-10-14T23:40:40.431Z,43.37
2022-10-14T23:43:08.404Z,43.57
2022-10-14T23:45:36.314Z,43.32
2022-10-14T23:48:04.278Z,43.65
2022-10-14T23:50:32.271Z,43.64
2022-10-14T23:53:00.573Z,43.63
2022-10-14T23:55:30.526Z,43.61
2022-10-14T23:57:58.472Z,43.35
